Time,TemperatureF,DewpointF,PressureIn,WindDirection,WindDirectionDegrees,WindSpeedMPH,WindSpeedGustMPH,Humidity,HourlyPrecipIn,Conditions,Clouds,dailyrainin,SoftwareType,DateUTC
2013-06-26 00:01:00,68.0,67.0,-100.00,North,0,6.0,19.0,96,17.56,,,-99.99,,2013-06-26 04:01:00,
2013-06-26 00:22:00,68.0,68.0,-100.00,NE,40,0.0,6.0,97,0.00,,,-99.99,,2013-06-26 04:22:00,
2013-06-26 00:33:00,68.0,67.0,-100.00,ENE,60,7.0,9.0,97,0.00,,,-99.99,,2013-06-26 04:33:00,
2013-06-26 00:43:00,67.0,67.0,-100.00,East,100,6.0,9.0,97,0.00,,,-99.99,,2013-06-26 04:43:00,
2013-06-26 01:11:00,67.0,67.0,-100.00,ESE,120,3.0,4.0,97,0.00,,,-99.99,,2013-06-26 05:11:00,
2013-06-26 01:43:00,68.0,67.0,-100.00,ENE,75,0.0,1.0,97,0.00,,,-99.99,,2013-06-26 05:43:00,
2013-06-26 02:11:00,68.0,67.0,-100.00,SE,125,3.0,4.0,97,0.00,,,-99.99,,2013-06-26 06:11:00,
2013-06-26 02:34:00,68.0,67.0,-100.00,SE,130,3.0,5.0,97,0.00,,,-99.99,,2013-06-26 06:34:00,
2013-06-26 02:43:00,68.0,67.0,-100.00,SE,140,1.0,4.0,97,0.00,,,-99.99,,2013-06-26 06:43:00,
2013-06-26 02:53:00,68.0,67.0,-100.00,SE,130,2.0,3.0,97,0.00,,,-99.99,,2013-06-26 06:53:00,
2013-06-26 03:01:00,68.0,67.0,-100.00,SE,130,1.0,3.0,97,0.00,,,-99.99,,2013-06-26 07:01:00,
2013-06-26 03:11:00,68.0,67.0,-100.00,WSW,255,0.0,3.0,97,0.00,,,-99.99,,2013-06-26 07:11:00,
2013-06-26 03:33:00,68.0,67.0,-100.00,WSW,255,0.0,2.0,97,0.00,,,-99.99,,2013-06-26 07:33:00,
2013-06-26 03:43:00,68.0,67.0,-100.00,NNW,330,1.0,4.0,97,0.00,,,-99.99,,2013-06-26 07:43:00,
2013-06-26 03:53:00,68.0,67.0,-100.00,NW,325,2.0,3.0,97,0.00,,,-99.99,,2013-06-26 07:53:00,
2013-06-26 04:01:00,68.0,67.0,-100.00,West,260,1.0,3.0,97,0.00,,,-99.99,,2013-06-26 08:01:00,
2013-06-26 04:33:00,68.0,67.0,-100.00,WSW,245,3.0,5.0,97,0.00,,,-99.99,,2013-06-26 08:33:00,
2013-06-26 04:42:00,68.0,67.0,-100.00,WSW,240,4.0,6.0,97,0.00,,,-99.99,,2013-06-26 08:42:00,
2013-06-26 04:52:00,68.0,67.0,-100.00,SW,225,5.0,7.0,97,0.00,,,-99.99,,2013-06-26 08:52:00,
2013-06-26 05:01:00,68.0,67.0,-100.00,SW,220,7.0,11.0,97,0.00,,,-99.99,,2013-06-26 09:01:00,
2013-06-26 05:22:00,68.0,67.0,-100.00,SW,220,9.0,9.0,97,0.00,,,-99.99,,2013-06-26 09:22:00,
2013-06-26 05:33:00,69.0,68.0,-100.00,SW,220,9.0,12.0,97,0.00,,,-99.99,,2013-06-26 09:33:00,
2013-06-26 05:43:00,68.0,67.0,-100.00,SW,230,9.0,11.0,96,0.00,,,-99.99,,2013-06-26 09:43:00,
2013-06-26 06:12:00,69.0,68.0,-100.00,WSW,245,6.0,12.0,96,0.00,,,-99.99,,2013-06-26 10:12:00,
2013-06-26 06:22:00,69.0,67.0,-100.00,SW,235,7.0,11.0,96,0.00,,,-99.99,,2013-06-26 10:22:00,
2013-06-26 06:34:00,69.0,67.0,-100.00,SW,230,9.0,12.0,96,0.00,,,-99.99,,2013-06-26 10:34:00,
2013-06-26 06:43:00,68.0,67.0,-100.00,SW,220,8.0,11.0,95,0.00,,,-99.99,,2013-06-26 10:43:00,
2013-06-26 07:12:00,69.0,67.0,-100.00,SSW,195,7.0,11.0,93,0.00,,,-99.99,,2013-06-26 11:12:00,
2013-06-26 07:33:00,69.0,67.0,-100.00,SW,220,7.0,10.0,92,0.00,,,-99.99,,2013-06-26 11:33:00,
2013-06-26 07:44:00,69.0,67.0,-100.00,SW,215,7.0,11.0,92,0.00,,,-99.99,,2013-06-26 11:44:00,
2013-06-26 08:02:00,69.0,67.0,-100.00,SW,220,9.0,12.0,92,0.00,,,-99.99,,2013-06-26 12:02:00,
2013-06-26 08:12:00,70.0,67.0,-100.00,SW,220,8.0,12.0,91,0.00,,,-99.99,,2013-06-26 12:12:00,
2013-06-26 08:22:00,70.0,67.0,-100.00,SW,215,9.0,12.0,91,0.00,,,-99.99,,2013-06-26 12:22:00,
2013-06-26 08:33:00,70.0,67.0,-100.00,SW,215,7.0,12.0,91,0.00,,,-99.99,,2013-06-26 12:33:00,
2013-06-26 08:42:00,71.0,68.0,-100.00,SW,225,7.0,11.0,90,0.00,,,-99.99,,2013-06-26 12:42:00,
2013-06-26 09:02:00,71.0,69.0,-100.00,SW,235,6.0,11.0,90,0.00,,,-99.99,,2013-06-26 13:02:00,
2013-06-26 09:34:00,73.0,68.0,-100.00,SW,235,12.0,16.0,84,0.00,,,-99.99,,2013-06-26 13:34:00,
2013-06-26 10:34:00,74.0,68.0,-100.00,WSW,250,9.0,12.0,79,0.00,,,-99.99,,2013-06-26 14:34:00,
2013-06-26 10:42:00,74.0,67.0,-100.00,WSW,255,8.0,13.0,79,0.00,,,-99.99,,2013-06-26 14:42:00,
2013-06-26 11:02:00,73.0,66.0,-100.00,WNW,295,9.0,16.0,78,0.00,,,-99.99,,2013-06-26 15:02:00,
2013-06-26 11:34:00,71.0,66.0,-100.00,WNW,300,12.0,21.0,84,0.00,,,-99.99,,2013-06-26 15:34:00,
2013-06-26 11:44:00,69.0,66.0,-100.00,NW,310,14.0,19.0,88,3.94,,,-99.99,,2013-06-26 15:44:00,
2013-06-26 12:01:00,69.0,66.0,-100.00,NW,305,10.0,19.0,91,0.55,,,-99.99,,2013-06-26 16:01:00,
2013-06-26 13:02:00,69.0,67.0,-100.00,SSE,155,2.0,6.0,94,0.00,,,-99.99,,2013-06-26 17:02:00,
2013-06-26 13:11:00,70.0,67.0,-100.00,SSE,155,4.0,7.0,92,0.00,,,-99.99,,2013-06-26 17:11:00,
2013-06-26 13:23:00,70.0,67.0,-100.00,SSE,165,4.0,6.0,91,0.00,,,-99.99,,2013-06-26 17:23:00,
2013-06-26 13:33:00,71.0,68.0,-100.00,SE,145,3.0,6.0,90,0.00,,,-99.99,,2013-06-26 17:33:00,
2013-06-26 13:43:00,73.0,69.0,-100.00,South,190,7.0,10.0,88,0.00,,,-99.99,,2013-06-26 17:43:00,
2013-06-26 14:01:00,74.0,69.0,-100.00,South,185,4.0,7.0,86,0.00,,,-99.99,,2013-06-26 18:01:00,
2013-06-26 16:43:00,84.0,72.0,-100.00,South,180,7.0,9.0,67,0.00,,,-99.99,,2013-06-26 20:43:00,
2013-06-26 17:02:00,84.0,72.0,-100.00,South,170,5.0,9.0,66,0.00,,,-99.99,,2013-06-26 21:02:00,
2013-06-26 17:43:00,84.0,72.0,-100.00,SW,220,8.0,11.0,66,0.00,,,-99.99,,2013-06-26 21:43:00,
2013-06-26 18:01:00,83.0,69.0,-100.00,SW,225,9.0,12.0,62,0.00,,,-99.99,,2013-06-26 22:01:00,
2013-06-26 18:11:00,83.0,71.0,-100.00,SW,220,9.0,14.0,65,0.00,,,-99.99,,2013-06-26 22:11:00,
2013-06-26 18:22:00,84.0,69.0,-100.00,WSW,240,8.0,15.0,60,0.00,,,-99.99,,2013-06-26 22:22:00,
2013-06-26 18:34:00,83.0,67.0,-100.00,SW,220,9.0,15.0,58,0.00,,,-99.99,,2013-06-26 22:34:00,
2013-06-26 19:34:00,73.0,69.0,-100.00,WSW,250,9.0,12.0,85,0.00,,,-99.99,,2013-06-26 23:34:00,
2013-06-26 19:43:00,74.0,69.0,-100.00,WSW,245,4.0,11.0,86,0.00,,,-99.99,,2013-06-26 23:43:00,
2013-06-26 19:52:00,74.0,69.0,-100.00,West,260,4.0,7.0,85,0.00,,,-99.99,,2013-06-26 23:52:00,
2013-06-26 20:01:00,74.0,69.0,-100.00,WSW,255,4.0,7.0,84,0.00,,,-99.99,,2013-06-27 00:01:00,
2013-06-26 20:12:00,74.0,69.0,-100.00,West,265,2.0,7.0,85,0.00,,,-99.99,,2013-06-27 00:12:00,
2013-06-26 20:22:00,74.0,69.0,-100.00,West,265,2.0,7.0,85,0.00,,,-99.99,,2013-06-27 00:22:00,
2013-06-26 20:33:00,74.0,69.0,-100.00,West,270,1.0,6.0,84,0.00,,,-99.99,,2013-06-27 00:33:00,
2013-06-26 20:43:00,74.0,69.0,-100.00,SW,230,1.0,2.0,84,0.00,,,-99.99,,2013-06-27 00:43:00,
2013-06-26 20:53:00,74.0,69.0,-100.00,East,100,1.0,2.0,85,0.00,,,-99.99,,2013-06-27 00:53:00,
2013-06-26 21:01:00,74.0,69.0,-100.00,ENE,70,1.0,3.0,86,0.00,,,-99.99,,2013-06-27 01:01:00,
2013-06-26 21:11:00,73.0,69.0,-100.00,ENE,65,1.0,3.0,86,0.00,,,-99.99,,2013-06-27 01:11:00,
2013-06-26 21:32:00,73.0,69.0,-100.00,ENE,70,2.0,3.0,86,0.00,,,-99.99,,2013-06-27 01:32:00,
2013-06-26 21:43:00,73.0,69.0,-100.00,ENE,65,2.0,4.0,87,0.00,,,-99.99,,2013-06-27 01:43:00,
2013-06-26 22:32:00,71.0,68.0,-100.00,East,100,6.0,8.0,89,0.00,,,-99.99,,2013-06-27 02:32:00,
2013-06-26 22:42:00,71.0,68.0,-100.00,East,90,4.0,9.0,89,0.00,,,-99.99,,2013-06-27 02:42:00,
2013-06-26 23:02:00,72.0,68.0,-100.00,ENE,75,4.0,6.0,88,0.00,,,-99.99,,2013-06-27 03:02:00,
2013-06-26 23:11:00,72.0,68.0,-100.00,ENE,65,2.0,6.0,89,0.00,,,-99.99,,2013-06-27 03:11:00,
2013-06-26 23:42:00,72.0,68.0,-100.00,NE,55,1.0,4.0,89,0.00,,,-99.99,,2013-06-27 03:42:00,